createdAt,value
2023-07-18T00:01:55.695Z,100.00
2023-07-18T00:04:22.116Z,100.00
2023-07-18T00:06:48.547Z,100.00
2023-07-18T00:09:14.937Z,100.00
2023-07-18T00:11:41.374Z,100.00
2023-07-18T00:14:07.917Z,100.00
2023-07-18T00:16:34.783Z,100.00
2023-07-18T00:19:01.462Z,100.00
2023-07-18T00:21:28.056Z,100.00
2023-07-18T00:23:54.543Z,100.00
2023-07-18T00:26:21.128Z,100.00
2023-07-18T00:28:47.668Z,100.00
2023-07-18T00:31:15.490Z,100.00
2023-07-18T00:33:42.030Z,100.00
2023-07-18T00:36:08.451Z,100.00
2023-07-18T00:38:34.843Z,100.00
2023-07-18T00:41:02.094Z,100.00
2023-07-18T00:43:31.626Z,100.00
2023-07-18T00:45:58.142Z,100.00
2023-07-18T00:48:27.554Z,100.00
2023-07-18T00:50:54.110Z,100.00
2023-07-18T00:53:22.857Z,100.00
2023-07-18T00:55:50.094Z,100.00
2023-07-18T00:58:17.987Z,100.00
2023-07-18T01:00:44.497Z,100.00
2023-07-18T01:03:11.194Z,100.00
2023-07-18T01:05:37.788Z,100.00
2023-07-18T01:08:04.246Z,100.00
2023-07-18T01:10:31.997Z,100.00
2023-07-18T01:13:00.149Z,100.00
2023-07-18T01:15:30.540Z,100.00
2023-07-18T01:17:57.074Z,100.00
2023-07-18T01:20:24.569Z,100.00
2023-07-18T01:22:52.867Z,100.00
2023-07-18T01:25:19.417Z,100.00
2023-07-18T01:27:50.131Z,100.00
2023-07-18T01:30:17.746Z,100.00
2023-07-18T01:32:44.180Z,100.00
2023-07-18T01:35:10.662Z,100.00
2023-07-18T01:37:38.159Z,100.00
2023-07-18T01:40:06.644Z,100.00
2023-07-18T01:42:33.082Z,100.00
2023-07-18T01:44:59.798Z,100.00
2023-07-18T01:47:26.465Z,100.00
2023-07-18T01:49:52.873Z,100.00
2023-07-18T01:52:19.310Z,100.00
2023-07-18T01:54:45.830Z,100.00
2023-07-18T01:57:12.368Z,100.00
2023-07-18T01:59:39.006Z,100.00
2023-07-18T02:02:05.469Z,100.00
2023-07-18T02:04:32.077Z,100.00
2023-07-18T02:06:58.519Z,100.00
2023-07-18T02:09:24.976Z,100.00
2023-07-18T02:11:51.536Z,100.00
2023-07-18T02:14:17.944Z,100.00
2023-07-18T02:16:44.435Z,100.00
2023-07-18T02:19:10.902Z,100.00
2023-07-18T02:21:37.409Z,100.00
2023-07-18T02:24:03.963Z,100.00
2023-07-18T02:26:30.482Z,100.00
2023-07-18T02:28:56.879Z,100.00
2023-07-18T02:31:24.988Z,100.00
2023-07-18T02:33:51.618Z,100.00
2023-07-18T02:36:18.140Z,100.00
2023-07-18T02:38:44.577Z,100.00
2023-07-18T02:41:11.005Z,100.00
2023-07-18T02:43:37.466Z,100.00
2023-07-18T02:46:04.005Z,100.00
2023-07-18T02:48:30.433Z,100.00
2023-07-18T02:50:56.852Z,100.00
2023-07-18T02:53:23.230Z,100.00
2023-07-18T02:55:49.618Z,100.00
2023-07-18T02:58:16.101Z,100.00
2023-07-18T03:00:42.675Z,100.00
2023-07-18T03:03:09.308Z,100.00
2023-07-18T03:05:35.854Z,100.00
2023-07-18T03:08:02.521Z,100.00
2023-07-18T03:10:28.957Z,100.00
2023-07-18T03:12:55.465Z,100.00
2023-07-18T03:15:21.898Z,100.00
2023-07-18T03:17:48.425Z,100.00
2023-07-18T03:20:14.979Z,100.00
2023-07-18T03:22:41.458Z,100.00
2023-07-18T03:25:08.262Z,100.00
2023-07-18T03:27:34.736Z,100.00
2023-07-18T03:30:01.241Z,100.00
2023-07-18T03:32:29.672Z,100.00
2023-07-18T03:34:56.300Z,100.00
2023-07-18T03:37:25.782Z,100.00
2023-07-18T03:39:52.236Z,100.00
2023-07-18T03:42:18.714Z,100.00
2023-07-18T03:44:45.135Z,100.00
2023-07-18T03:47:20.776Z,100.00
2023-07-18T03:49:47.792Z,100.00
2023-07-18T03:52:14.267Z,100.00
2023-07-18T03:54:40.679Z,100.00
2023-07-18T03:57:07.177Z,100.00
2023-07-18T03:59:33.729Z,100.00
2023-07-18T04:02:00.167Z,100.00
2023-07-18T04:04:26.722Z,100.00
2023-07-18T04:06:53.513Z,100.00
2023-07-18T04:09:19.915Z,100.00
2023-07-18T04:11:46.441Z,100.00
2023-07-18T04:14:13.246Z,100.00
2023-07-18T04:16:39.790Z,100.00
2023-07-18T04:19:06.406Z,100.00
2023-07-18T04:21:33.597Z,100.00
2023-07-18T04:24:00.266Z,100.00
2023-07-18T04:26:26.811Z,100.00
2023-07-18T04:28:53.276Z,100.00
2023-07-18T04:31:19.918Z,100.00
2023-07-18T04:33:46.810Z,100.00
2023-07-18T04:36:13.226Z,100.00
2023-07-18T04:38:39.915Z,100.00
2023-07-18T04:41:06.419Z,100.00
2023-07-18T04:43:33.032Z,100.00
2023-07-18T04:45:59.458Z,100.00
2023-07-18T04:48:26.387Z,100.00
2023-07-18T04:50:59.974Z,100.00
2023-07-18T04:53:27.099Z,100.00
2023-07-18T04:55:53.891Z,100.00
2023-07-18T04:58:20.478Z,100.00
2023-07-18T05:00:47.160Z,100.00
2023-07-18T05:03:13.936Z,100.00
2023-07-18T05:05:40.491Z,100.00
2023-07-18T05:08:07.054Z,100.00
2023-07-18T05:10:33.476Z,100.00
2023-07-18T05:13:00.220Z,100.00
2023-07-18T05:15:26.755Z,100.00
2023-07-18T05:17:53.158Z,100.00
2023-07-18T05:20:19.674Z,100.00
2023-07-18T05:22:46.525Z,100.00
2023-07-18T05:25:14.214Z,100.00
2023-07-18T05:27:41.490Z,100.00
2023-07-18T05:30:15.204Z,99.85
2023-07-18T05:32:42.411Z,99.31
2023-07-18T05:35:09.044Z,99.18
2023-07-18T05:37:35.706Z,98.52
2023-07-18T05:40:02.384Z,98.28
2023-07-18T05:42:28.861Z,97.12
2023-07-18T05:44:55.309Z,98.06
2023-07-18T05:47:21.885Z,97.56
2023-07-18T05:49:48.319Z,96.91
2023-07-18T05:52:15.010Z,96.33
2023-07-18T05:54:41.597Z,96.46
2023-07-18T05:57:09.128Z,94.95
2023-07-18T05:59:35.637Z,94.07
2023-07-18T06:02:02.281Z,94.64
2023-07-18T06:04:28.784Z,94.00
2023-07-18T06:06:55.261Z,94.04
2023-07-18T06:09:21.810Z,92.48
2023-07-18T06:11:48.384Z,92.02
2023-07-18T06:14:15.037Z,92.00
2023-07-18T06:16:42.698Z,91.09
2023-07-18T06:19:09.344Z,90.08
2023-07-18T06:21:35.823Z,90.44
2023-07-18T06:24:16.784Z,89.78
2023-07-18T06:26:45.628Z,88.59
2023-07-18T06:29:13.220Z,88.31
2023-07-18T06:31:39.622Z,88.74
2023-07-18T06:34:06.071Z,87.97
2023-07-18T06:36:32.687Z,87.91
2023-07-18T06:38:59.278Z,87.12
2023-07-18T06:41:25.769Z,87.33
2023-07-18T06:43:52.258Z,86.12
2023-07-18T06:46:18.764Z,86.21
2023-07-18T06:48:45.239Z,86.27
2023-07-18T06:51:11.728Z,85.53
2023-07-18T06:53:47.121Z,84.91
2023-07-18T06:56:13.607Z,85.03
2023-07-18T06:58:40.152Z,83.45
2023-07-18T07:01:06.641Z,81.93
2023-07-18T07:03:33.279Z,82.83
2023-07-18T07:05:59.815Z,82.94
2023-07-18T07:08:26.301Z,82.65
2023-07-18T07:11:03.351Z,81.21
2023-07-18T07:13:29.924Z,81.16
2023-07-18T07:15:56.516Z,81.75
2023-07-18T07:18:23.552Z,81.54
2023-07-18T07:20:51.290Z,80.42
2023-07-18T07:23:17.887Z,79.99
2023-07-18T07:25:44.513Z,79.48
2023-07-18T07:28:11.094Z,79.50
2023-07-18T07:30:37.577Z,79.00
2023-07-18T07:33:04.646Z,78.82
2023-07-18T07:35:31.089Z,77.50
2023-07-18T07:37:57.595Z,78.19
2023-07-18T07:40:24.262Z,78.03
2023-07-18T07:42:50.936Z,78.07
2023-07-18T07:45:17.580Z,77.63
2023-07-18T07:47:44.185Z,75.84
2023-07-18T07:50:10.732Z,76.69
2023-07-18T07:52:37.184Z,76.19
2023-07-18T07:55:03.854Z,76.14
2023-07-18T07:57:30.523Z,76.08
2023-07-18T07:59:56.976Z,76.40
2023-07-18T08:02:23.734Z,75.90
2023-07-18T08:04:50.308Z,76.27
2023-07-18T08:07:16.881Z,76.65
2023-07-18T08:09:43.562Z,75.72
2023-07-18T08:12:10.936Z,74.14
2023-07-18T08:14:37.385Z,73.09
2023-07-18T08:17:04.297Z,73.95
2023-07-18T08:19:30.754Z,72.90
2023-07-18T08:21:57.215Z,72.86
2023-07-18T08:24:23.619Z,73.42
2023-07-18T08:26:50.080Z,73.37
2023-07-18T08:29:16.942Z,71.46
2023-07-18T08:31:43.787Z,72.60
2023-07-18T08:34:10.369Z,71.41
2023-07-18T08:36:36.783Z,70.94
2023-07-18T08:39:06.847Z,69.22
2023-07-18T08:41:38.029Z,67.95
2023-07-18T08:44:04.683Z,67.86
2023-07-18T08:46:31.269Z,67.24
2023-07-18T08:48:58.301Z,67.78
2023-07-18T08:51:24.910Z,67.75
2023-07-18T08:53:51.344Z,64.32
2023-07-18T08:56:17.855Z,64.28
2023-07-18T08:58:44.330Z,63.82
2023-07-18T09:01:10.760Z,63.52
2023-07-18T09:03:37.193Z,64.26
2023-07-18T09:06:03.927Z,64.76
2023-07-18T09:08:42.803Z,64.21
2023-07-18T09:11:09.265Z,63.77
2023-07-18T09:13:42.186Z,63.56
2023-07-18T09:16:18.736Z,62.79
2023-07-18T09:18:50.252Z,62.38
2023-07-18T09:21:17.692Z,62.38
2023-07-18T09:23:45.311Z,61.85
2023-07-18T09:26:13.452Z,62.47
2023-07-18T09:28:39.967Z,61.30
2023-07-18T09:31:19.548Z,60.95
2023-07-18T09:33:47.198Z,59.75
2023-07-18T09:36:20.726Z,59.88
2023-07-18T09:38:47.556Z,60.61
2023-07-18T09:41:15.992Z,59.50
2023-07-18T09:43:42.783Z,57.23
2023-07-18T09:46:13.259Z,56.37
2023-07-18T09:51:11.272Z,57.16
2023-07-18T09:53:39.473Z,58.48
2023-07-18T09:56:07.845Z,58.14
2023-07-18T09:58:37.371Z,57.53
2023-07-18T10:01:05.178Z,56.58
2023-07-18T10:03:32.010Z,56.62
2023-07-18T10:05:58.620Z,57.09
2023-07-18T10:11:27.153Z,53.54
2023-07-18T10:14:23.232Z,52.24
2023-07-18T10:16:55.905Z,51.21
2023-07-18T10:19:23.154Z,50.47
2023-07-18T10:21:51.745Z,50.39
2023-07-18T10:24:21.382Z,49.62
2023-07-18T10:27:20.220Z,48.76
2023-07-18T10:30:03.261Z,49.92
2023-07-18T10:32:33.690Z,48.55
2023-07-18T10:35:00.841Z,48.71
2023-07-18T10:37:29.907Z,46.44
2023-07-18T10:39:57.196Z,47.68
2023-07-18T10:42:25.469Z,46.44
2023-07-18T10:44:55.040Z,44.22
2023-07-18T10:47:21.986Z,43.79
2023-07-18T10:49:48.589Z,43.77
2023-07-18T10:52:15.729Z,42.81
2023-07-18T10:54:52.328Z,42.45
2023-07-18T10:57:25.326Z,42.55
2023-07-18T10:59:52.524Z,42.30
2023-07-18T11:02:19.528Z,42.33
2023-07-18T11:04:46.765Z,40.91
2023-07-18T11:07:13.283Z,40.11
2023-07-18T11:09:40.508Z,39.64
2023-07-18T11:12:07.858Z,39.03
2023-07-18T11:14:40.661Z,38.61
2023-07-18T11:17:11.437Z,37.67
2023-07-18T11:19:38.127Z,37.30
2023-07-18T11:22:06.143Z,35.69
2023-07-18T11:24:33.591Z,36.10
2023-07-18T11:27:15.412Z,35.03
2023-07-18T11:30:02.025Z,36.11
2023-07-18T11:32:42.045Z,35.24
2023-07-18T11:35:12.691Z,34.32
2023-07-18T11:37:42.560Z,33.35
2023-07-18T11:40:10.366Z,32.02
2023-07-18T11:42:47.145Z,31.30
2023-07-18T11:45:15.561Z,32.27
2023-07-18T11:47:42.758Z,30.48
2023-07-18T11:50:09.983Z,30.05
2023-07-18T11:52:36.424Z,28.61
2023-07-18T11:55:02.957Z,28.00
2023-07-18T11:57:29.467Z,26.98
2023-07-18T11:59:55.972Z,27.85
2023-07-18T12:02:24.069Z,27.58
2023-07-18T12:04:52.531Z,28.28
2023-07-18T12:07:18.985Z,28.68
2023-07-18T12:09:45.506Z,28.40
2023-07-18T12:12:12.049Z,26.39
2023-07-18T12:14:38.739Z,27.24
2023-07-18T12:17:05.566Z,27.96
2023-07-18T12:19:32.309Z,27.61
2023-07-18T12:21:58.864Z,28.89
2023-07-18T12:24:25.321Z,28.90
2023-07-18T12:26:51.853Z,29.43
2023-07-18T12:29:18.356Z,27.60
2023-07-18T12:31:45.611Z,27.65
2023-07-18T12:34:12.390Z,28.83
2023-07-18T12:36:38.836Z,27.95
2023-07-18T12:39:05.421Z,28.01
2023-07-18T12:41:32.143Z,27.83
2023-07-18T12:43:58.654Z,25.17
2023-07-18T12:46:25.125Z,24.17
2023-07-18T12:51:29.646Z,25.49
2023-07-18T12:53:56.108Z,24.82
2023-07-18T12:56:22.700Z,24.54
2023-07-18T12:58:49.204Z,26.41
2023-07-18T13:01:15.739Z,25.77
2023-07-18T13:03:42.288Z,24.43
2023-07-18T13:06:09.088Z,24.12
2023-07-18T13:08:35.611Z,22.69
2023-07-18T13:11:02.231Z,23.48
2023-07-18T13:13:28.699Z,22.95
2023-07-18T13:15:55.267Z,22.03
2023-07-18T13:18:21.719Z,22.32
2023-07-18T13:20:48.633Z,22.24
2023-07-18T13:23:15.218Z,22.06
2023-07-18T13:25:41.693Z,21.70
2023-07-18T13:28:08.584Z,19.88
2023-07-18T13:30:36.556Z,19.91
2023-07-18T13:33:03.068Z,20.37
2023-07-18T13:35:29.641Z,20.43
2023-07-18T13:37:56.183Z,20.63
2023-07-18T13:40:23.331Z,20.83
2023-07-18T13:42:49.860Z,21.95
2023-07-18T13:45:16.365Z,21.64
2023-07-18T13:47:44.660Z,21.08
2023-07-18T13:52:40.695Z,20.43
2023-07-18T13:55:07.457Z,20.47
2023-07-18T13:57:33.976Z,20.39
2023-07-18T14:00:00.409Z,19.81
2023-07-18T14:02:26.990Z,19.27
2023-07-18T14:04:53.598Z,18.90
2023-07-18T14:07:20.046Z,19.06
2023-07-18T14:09:46.512Z,18.69
2023-07-18T14:12:14.108Z,18.34
2023-07-18T14:14:40.712Z,18.04
2023-07-18T14:17:07.253Z,18.60
2023-07-18T14:19:33.662Z,18.57
2023-07-18T14:22:00.301Z,18.57
2023-07-18T14:24:26.826Z,18.07
2023-07-18T14:26:53.548Z,17.75
2023-07-18T14:29:20.033Z,17.06
2023-07-18T14:31:46.545Z,17.26
2023-07-18T14:34:13.150Z,17.87
2023-07-18T14:36:39.648Z,17.99
2023-07-18T14:39:06.195Z,17.97
2023-07-18T14:41:32.637Z,18.04
2023-07-18T14:43:59.155Z,17.73
2023-07-18T14:46:25.830Z,17.44
2023-07-18T14:48:52.511Z,17.33
2023-07-18T14:51:19.119Z,17.24
2023-07-18T14:53:45.743Z,16.95
2023-07-18T14:56:12.300Z,17.09
2023-07-18T14:58:38.882Z,17.08
2023-07-18T15:01:05.525Z,16.90
2023-07-18T15:03:32.193Z,17.20
2023-07-18T15:05:58.633Z,16.96
2023-07-18T15:08:25.106Z,17.73
2023-07-18T15:10:51.628Z,17.20
2023-07-18T15:13:18.070Z,17.31
2023-07-18T15:15:46.047Z,16.98
2023-07-18T15:18:13.077Z,16.79
2023-07-18T15:20:39.596Z,17.18
2023-07-18T15:23:06.241Z,17.67
2023-07-18T15:25:32.965Z,17.20
2023-07-18T15:27:59.498Z,17.29
2023-07-18T15:30:26.298Z,17.67
2023-07-18T15:32:54.424Z,18.07
2023-07-18T15:35:21.029Z,17.76
2023-07-18T15:37:47.479Z,17.61
2023-07-18T15:40:13.973Z,18.53
2023-07-18T15:42:40.653Z,18.56
2023-07-18T15:45:07.491Z,19.35
2023-07-18T15:47:34.362Z,19.49
2023-07-18T15:50:00.854Z,19.44
2023-07-18T15:52:27.478Z,18.86
2023-07-18T15:54:54.110Z,18.89
2023-07-18T15:57:20.620Z,19.26
2023-07-18T15:59:47.232Z,18.74
2023-07-18T16:02:13.920Z,19.49
2023-07-18T16:04:40.568Z,19.00
2023-07-18T16:07:07.020Z,19.21
2023-07-18T16:09:46.714Z,18.27
2023-07-18T16:12:13.171Z,18.33
2023-07-18T16:14:39.654Z,18.45
2023-07-18T16:17:06.246Z,18.51
2023-07-18T16:19:32.663Z,19.08
2023-07-18T16:21:59.160Z,19.28
2023-07-18T16:24:25.668Z,19.16
2023-07-18T16:29:30.618Z,20.02
2023-07-18T16:31:56.954Z,19.63
2023-07-18T16:34:24.693Z,19.68
2023-07-18T16:36:56.578Z,20.73
2023-07-18T16:39:22.998Z,22.30
2023-07-18T16:41:49.512Z,22.90
2023-07-18T16:44:17.551Z,23.74
2023-07-18T16:46:45.796Z,24.21
2023-07-18T16:49:12.234Z,24.55
2023-07-18T16:51:38.936Z,25.35
2023-07-18T16:54:05.444Z,25.90
2023-07-18T16:56:33.187Z,27.07
2023-07-18T16:59:00.773Z,27.93
2023-07-18T17:01:27.491Z,28.44
2023-07-18T17:03:54.059Z,29.09
2023-07-18T17:06:21.053Z,30.32
2023-07-18T17:08:48.129Z,31.53
2023-07-18T17:11:32.853Z,32.29
2023-07-18T17:13:59.500Z,33.09
2023-07-18T17:16:25.959Z,34.23
2023-07-18T17:18:52.457Z,35.21
2023-07-18T17:21:18.991Z,34.83
2023-07-18T17:23:47.932Z,34.91
2023-07-18T17:26:16.813Z,35.10
2023-07-18T17:28:43.451Z,36.67
2023-07-18T17:31:10.196Z,37.98
2023-07-18T17:33:39.085Z,38.62
2023-07-18T17:36:06.532Z,38.41
2023-07-18T17:38:33.107Z,38.32
2023-07-18T17:40:59.752Z,38.48
2023-07-18T17:43:26.391Z,38.78
2023-07-18T17:45:52.861Z,39.29
2023-07-18T17:48:19.303Z,39.47
2023-07-18T17:50:46.130Z,39.93
2023-07-18T17:53:13.018Z,40.53
2023-07-18T17:55:39.651Z,40.95
2023-07-18T17:58:06.017Z,42.16
2023-07-18T18:00:32.489Z,43.12
2023-07-18T18:02:59.209Z,44.33
2023-07-18T18:05:39.004Z,44.25
2023-07-18T18:11:07.683Z,44.35
2023-07-18T18:13:34.691Z,44.60
2023-07-18T18:16:08.307Z,45.63
2023-07-18T18:18:36.026Z,46.52
2023-07-18T18:21:03.099Z,46.59
2023-07-18T18:23:38.700Z,47.19
2023-07-18T18:29:01.800Z,48.01
2023-07-18T18:31:28.196Z,48.51
2023-07-18T18:33:54.684Z,49.02
2023-07-18T18:36:28.072Z,49.28
2023-07-18T18:38:54.556Z,49.93
2023-07-18T18:41:21.239Z,50.58
2023-07-18T18:43:49.258Z,50.72
2023-07-18T18:46:16.122Z,51.57
2023-07-18T18:48:42.604Z,51.92
2023-07-18T18:51:11.864Z,52.18
2023-07-18T18:53:40.526Z,52.55
2023-07-18T18:56:07.242Z,53.07
2023-07-18T18:58:36.775Z,53.48
2023-07-18T19:01:03.255Z,53.98
2023-07-18T19:03:30.161Z,54.37
2023-07-18T19:09:05.781Z,56.32
2023-07-18T19:11:32.415Z,56.91
2023-07-18T19:14:01.125Z,57.44
2023-07-18T19:16:38.853Z,58.07
2023-07-18T19:19:06.427Z,58.19
2023-07-18T19:24:13.585Z,58.53
2023-07-18T19:26:40.534Z,58.92
2023-07-18T19:29:08.047Z,59.35
2023-07-18T19:31:34.626Z,59.51
2023-07-18T19:34:01.149Z,59.51
2023-07-18T19:36:27.690Z,59.64
2023-07-18T19:38:54.329Z,60.07
2023-07-18T19:41:20.879Z,60.69
2023-07-18T19:43:47.457Z,61.54
2023-07-18T19:46:14.137Z,61.97
2023-07-18T19:48:40.658Z,62.30
2023-07-18T19:51:07.090Z,62.52
2023-07-18T19:53:33.640Z,62.65
2023-07-18T19:56:01.570Z,62.97
2023-07-18T19:58:28.002Z,63.26
2023-07-18T20:00:54.994Z,63.52
2023-07-18T20:03:21.699Z,63.87
2023-07-18T20:05:49.338Z,64.56
2023-07-18T20:08:19.881Z,65.23
2023-07-18T20:10:46.335Z,65.94
2023-07-18T20:13:12.718Z,66.07
2023-07-18T20:15:39.174Z,66.59
2023-07-18T20:18:05.720Z,66.94
2023-07-18T20:20:32.201Z,67.45
2023-07-18T20:22:58.633Z,67.69
2023-07-18T20:25:25.182Z,67.89
2023-07-18T20:27:51.531Z,68.00
2023-07-18T20:30:17.907Z,68.16
2023-07-18T20:32:44.342Z,68.44
2023-07-18T20:35:10.734Z,68.80
2023-07-18T20:37:37.168Z,68.96
2023-07-18T20:40:03.736Z,69.20
2023-07-18T20:42:30.545Z,69.46
2023-07-18T20:44:56.915Z,69.83
2023-07-18T20:47:23.442Z,70.07
2023-07-18T20:49:49.939Z,70.52
2023-07-18T20:52:16.404Z,70.94
2023-07-18T20:54:42.798Z,71.12
2023-07-18T20:57:09.218Z,71.00
2023-07-18T20:59:35.645Z,71.08
2023-07-18T21:02:02.124Z,71.43
2023-07-18T21:04:28.466Z,71.45
2023-07-18T21:06:57.662Z,71.22
2023-07-18T21:09:24.272Z,71.30
2023-07-18T21:11:50.719Z,71.61
2023-07-18T21:14:18.581Z,72.28
2023-07-18T21:16:45.623Z,72.59
2023-07-18T21:19:12.209Z,72.47
2023-07-18T21:21:38.623Z,72.27
2023-07-18T21:24:05.261Z,72.23
2023-07-18T21:26:31.686Z,72.29
2023-07-18T21:29:04.865Z,72.74
2023-07-18T21:31:32.695Z,73.46
2023-07-18T21:33:59.180Z,73.71
2023-07-18T21:36:25.570Z,73.74
2023-07-18T21:38:52.071Z,73.63
2023-07-18T21:41:18.787Z,73.04
2023-07-18T21:43:45.371Z,72.89
2023-07-18T21:46:11.865Z,73.18
2023-07-18T21:48:38.443Z,73.55
2023-07-18T21:51:04.898Z,73.97
2023-07-18T21:53:31.267Z,74.14
2023-07-18T21:55:58.072Z,74.31
2023-07-18T21:58:24.511Z,73.82
2023-07-18T22:00:51.040Z,73.90
2023-07-18T22:03:17.552Z,74.20
2023-07-18T22:05:44.273Z,74.38
2023-07-18T22:08:10.685Z,74.72
2023-07-18T22:10:37.048Z,74.80
2023-07-18T22:13:03.411Z,74.98
2023-07-18T22:15:30.329Z,75.40
2023-07-18T22:17:56.780Z,75.64
2023-07-18T22:20:23.192Z,75.82
2023-07-18T22:22:49.760Z,76.19
2023-07-18T22:25:16.248Z,76.48
2023-07-18T22:27:42.593Z,76.52
2023-07-18T22:30:09.098Z,76.90
2023-07-18T22:32:35.671Z,77.46
2023-07-18T22:35:02.083Z,77.27
2023-07-18T22:37:28.637Z,77.20
2023-07-18T22:39:55.004Z,77.40
2023-07-18T22:42:22.474Z,77.64
2023-07-18T22:44:49.130Z,77.73
2023-07-18T22:47:15.711Z,78.04
2023-07-18T22:49:42.254Z,78.14
2023-07-18T22:52:09.494Z,78.32
2023-07-18T22:54:36.283Z,78.44
2023-07-18T22:57:02.671Z,78.71
2023-07-18T22:59:29.425Z,78.91
2023-07-18T23:01:55.774Z,78.77
2023-07-18T23:04:22.276Z,79.06
2023-07-18T23:06:48.901Z,79.07
2023-07-18T23:09:15.547Z,78.83
2023-07-18T23:11:42.563Z,78.80
2023-07-18T23:14:09.078Z,78.66
2023-07-18T23:16:35.489Z,78.81
2023-07-18T23:19:01.921Z,78.81
2023-07-18T23:21:28.430Z,78.95
2023-07-18T23:23:54.821Z,79.25
2023-07-18T23:26:21.322Z,79.39
2023-07-18T23:28:47.682Z,79.55
2023-07-18T23:31:14.161Z,79.82
2023-07-18T23:33:40.714Z,79.90
2023-07-18T23:36:07.494Z,80.31
2023-07-18T23:38:33.804Z,80.28
2023-07-18T23:41:00.251Z,80.32
2023-07-18T23:43:26.650Z,80.33
2023-07-18T23:45:53.106Z,80.41
2023-07-18T23:48:19.492Z,80.77
2023-07-18T23:50:46.030Z,80.82
2023-07-18T23:53:12.545Z,80.86
2023-07-18T23:55:41.897Z,81.04
2023-07-18T23:58:08.379Z,80.96
